Santa Clarita, CA (91390)

5:33 PM PST on December 09, 2016 (GMT -0800)
AA6RV WX Station, California Canyons | | Change Station

Elev 1928 ft 34.46 °N, 118.39 °W | Updated 1 minute ago

Clear
Clear
57.3 °F
Feels Like 57.3 °F
N
0.0
Wind Variable Wind from NE
Gusts 1.0 mph

Today
High -- | Low -- °F
--% Chance of Precip.
Yesterday
High -- | Low -- °F
Precip. -- in
Pressure 30.18 in
Visibility 10.0 miles
Clouds Clear
Dew Point 47 °F
Humidity 68%
Rainfall 0.00 in
Snow Depth Not available.
6:49 AM 4:43 PM
Waxing Gibbous, 79% visible
METAR KWHP 092353Z 12005KT 10SM SKC 18/10 A3018
Pressure 30.18 in
Visibility 10.0 miles
Clouds Clear
Dew Point 47 °F
Humidity 68%
Rainfall 0.00 in
Snow Depth Not available.
6:49 AM 4:43 PM
Waxing Gibbous, 79% visible
METAR KWHP 092353Z 12005KT 10SM SKC 18/10 A3018

10-Day Weather Forecast

Almanac

Astronomy

Dec. 09, 2016 Rise Set
Actual Time
Civil Twilight
Nautical Twilight
Astronomical Twilight
Moon
Length of Visible Light
Length of Day
Tomorrow will be .
, % of the Moon is Illuminated

Today's Extremes

State Highs State Lows

Community

WunderPhotos

Upload Photos

1,956,534 photos uploaded!

WunderBlog® & News

Nearby

Air Quality

  Air Quality AQ Index Pollutant
Not available.

Snow Depth

Station Depth Elevation

Earthquake Activity

City Distance Mag. Time & Date
Minimum magnitude displayed is 2.5.

Coastal Water Temperatures

Place Temperature

Stations

Nearby Weather Stations

Station Location Temp. Windchill Dew Point Humidity Wind Precip. Elev Updated Type
                   

Watches & Warnings

There are currently no watches in effect.